sensor_id;sensor_type;location;lat;lon;timestamp;P1;durP1;ratioP1;P2;durP2;ratioP2
26261;SDS011;13988;52.446;13.280;2024-03-08T00:02:16;23.50;;;8.82;;
26261;SDS011;13988;52.446;13.280;2024-03-08T00:04:41;25.35;;;8.93;;
26261;SDS011;13988;52.446;13.280;2024-03-08T00:07:07;19.63;;;9.13;;
26261;SDS011;13988;52.446;13.280;2024-03-08T00:09:33;18.52;;;8.77;;
26261;SDS011;13988;52.446;13.280;2024-03-08T00:11:58;25.90;;;10.20;;
26261;SDS011;13988;52.446;13.280;2024-03-08T00:14:24;21.00;;;10.48;;
26261;SDS011;13988;52.446;13.280;2024-03-08T00:16:50;20.25;;;10.40;;
26261;SDS011;13988;52.446;13.280;2024-03-08T00:19:17;21.17;;;10.18;;
26261;SDS011;13988;52.446;13.280;2024-03-08T00:21:43;21.92;;;10.18;;
26261;SDS011;13988;52.446;13.280;2024-03-08T00:24:10;19.83;;;9.80;;
26261;SDS011;13988;52.446;13.280;2024-03-08T00:26:35;24.05;;;9.63;;
26261;SDS011;13988;52.446;13.280;2024-03-08T00:29:01;23.55;;;9.68;;
26261;SDS011;13988;52.446;13.280;2024-03-08T00:31:28;19.88;;;10.60;;
26261;SDS011;13988;52.446;13.280;2024-03-08T00:33:55;25.85;;;9.82;;
26261;SDS011;13988;52.446;13.280;2024-03-08T00:36:22;26.15;;;9.80;;
26261;SDS011;13988;52.446;13.280;2024-03-08T00:38:47;23.42;;;9.48;;
26261;SDS011;13988;52.446;13.280;2024-03-08T00:41:13;35.00;;;10.02;;
26261;SDS011;13988;52.446;13.280;2024-03-08T00:43:39;27.52;;;9.02;;
26261;SDS011;13988;52.446;13.280;2024-03-08T00:46:04;21.85;;;10.15;;
26261;SDS011;13988;52.446;13.280;2024-03-08T00:48:30;22.70;;;10.13;;
26261;SDS011;13988;52.446;13.280;2024-03-08T00:50:56;22.35;;;10.18;;
26261;SDS011;13988;52.446;13.280;2024-03-08T00:53:22;21.90;;;9.70;;
26261;SDS011;13988;52.446;13.280;2024-03-08T00:55:48;25.85;;;11.07;;
26261;SDS011;13988;52.446;13.280;2024-03-08T00:58:13;22.80;;;10.88;;
26261;SDS011;13988;52.446;13.280;2024-03-08T01:00:39;26.08;;;10.43;;
26261;SDS011;13988;52.446;13.280;2024-03-08T01:03:05;22.75;;;10.20;;
26261;SDS011;13988;52.446;13.280;2024-03-08T01:05:31;20.80;;;9.93;;
26261;SDS011;13988;52.446;13.280;2024-03-08T01:07:57;17.25;;;8.38;;
26261;SDS011;13988;52.446;13.280;2024-03-08T01:10:23;23.65;;;9.88;;
26261;SDS011;13988;52.446;13.280;2024-03-08T01:12:49;18.73;;;9.85;;
26261;SDS011;13988;52.446;13.280;2024-03-08T01:15:15;21.00;;;9.10;;
26261;SDS011;13988;52.446;13.280;2024-03-08T01:17:41;24.67;;;10.65;;
26261;SDS011;13988;52.446;13.280;2024-03-08T01:20:07;25.77;;;10.70;;
26261;SDS011;13988;52.446;13.280;2024-03-08T01:22:35;20.27;;;10.27;;
26261;SDS011;13988;52.446;13.280;2024-03-08T01:25:01;21.90;;;10.00;;
26261;SDS011;13988;52.446;13.280;2024-03-08T01:27:29;23.63;;;10.93;;
26261;SDS011;13988;52.446;13.280;2024-03-08T01:29:56;24.63;;;10.05;;
26261;SDS011;13988;52.446;13.280;2024-03-08T01:32:21;18.27;;;9.35;;
26261;SDS011;13988;52.446;13.280;2024-03-08T01:34:48;26.23;;;10.55;;
26261;SDS011;13988;52.446;13.280;2024-03-08T01:37:14;27.13;;;10.40;;
26261;SDS011;13988;52.446;13.280;2024-03-08T01:39:40;24.42;;;10.25;;
26261;SDS011;13988;52.446;13.280;2024-03-08T01:42:05;21.17;;;11.07;;
26261;SDS011;13988;52.446;13.280;2024-03-08T01:44:31;23.75;;;11.68;;
26261;SDS011;13988;52.446;13.280;2024-03-08T01:46:56;19.73;;;9.60;;
26261;SDS011;13988;52.446;13.280;2024-03-08T01:49:22;22.38;;;9.90;;
26261;SDS011;13988;52.446;13.280;2024-03-08T01:51:51;22.45;;;10.02;;
26261;SDS011;13988;52.446;13.280;2024-03-08T01:54:17;20.67;;;9.65;;
26261;SDS011;13988;52.446;13.280;2024-03-08T01:56:45;24.08;;;9.48;;
26261;SDS011;13988;52.446;13.280;2024-03-08T01:59:11;24.08;;;11.23;;
26261;SDS011;13988;52.446;13.280;2024-03-08T02:01:39;23.95;;;9.95;;
26261;SDS011;13988;52.446;13.280;2024-03-08T02:04:05;18.27;;;9.43;;
26261;SDS011;13988;52.446;13.280;2024-03-08T02:06:32;23.15;;;9.63;;
26261;SDS011;13988;52.446;13.280;2024-03-08T02:08:58;20.77;;;8.75;;
26261;SDS011;13988;52.446;13.280;2024-03-08T02:11:24;23.42;;;10.13;;
26261;SDS011;13988;52.446;13.280;2024-03-08T02:13:50;23.83;;;11.38;;
26261;SDS011;13988;52.446;13.280;2024-03-08T02:16:20;23.40;;;10.07;;
26261;SDS011;13988;52.446;13.280;2024-03-08T02:18:48;18.55;;;8.95;;
26261;SDS011;13988;52.446;13.280;2024-03-08T02:21:13;19.08;;;8.90;;
26261;SDS011;13988;52.446;13.280;2024-03-08T02:23:46;21.08;;;10.10;;
26261;SDS011;13988;52.446;13.280;2024-03-08T02:26:12;17.17;;;8.80;;
26261;SDS011;13988;52.446;13.280;2024-03-08T02:28:37;23.33;;;9.90;;
26261;SDS011;13988;52.446;13.280;2024-03-08T02:31:04;20.42;;;8.80;;
26261;SDS011;13988;52.446;13.280;2024-03-08T02:33:33;24.10;;;9.52;;
26261;SDS011;13988;52.446;13.280;2024-03-08T02:35:59;19.55;;;9.13;;
26261;SDS011;13988;52.446;13.280;2024-03-08T02:38:25;22.73;;;10.60;;
26261;SDS011;13988;52.446;13.280;2024-03-08T02:40:51;22.98;;;10.18;;
26261;SDS011;13988;52.446;13.280;2024-03-08T02:43:18;27.40;;;10.80;;
26261;SDS011;13988;52.446;13.280;2024-03-08T02:45:47;28.98;;;10.98;;
26261;SDS011;13988;52.446;13.280;2024-03-08T02:48:13;25.45;;;10.38;;
26261;SDS011;13988;52.446;13.280;2024-03-08T02:50:39;21.80;;;9.85;;
26261;SDS011;13988;52.446;13.280;2024-03-08T02:53:07;24.85;;;9.93;;
26261;SDS011;13988;52.446;13.280;2024-03-08T02:55:33;24.23;;;9.20;;
26261;SDS011;13988;52.446;13.280;2024-03-08T02:58:01;24.33;;;11.38;;
26261;SDS011;13988;52.446;13.280;2024-03-08T03:00:28;24.58;;;10.43;;
26261;SDS011;13988;52.446;13.280;2024-03-08T03:02:55;28.10;;;10.40;;
26261;SDS011;13988;52.446;13.280;2024-03-08T03:05:24;27.30;;;10.30;;
26261;SDS011;13988;52.446;13.280;2024-03-08T03:07:50;26.95;;;9.35;;
26261;SDS011;13988;52.446;13.280;2024-03-08T03:10:17;23.17;;;10.30;;
26261;SDS011;13988;52.446;13.280;2024-03-08T03:12:43;20.58;;;10.05;;
26261;SDS011;13988;52.446;13.280;2024-03-08T03:15:11;23.98;;;8.95;;
26261;SDS011;13988;52.446;13.280;2024-03-08T03:17:38;26.55;;;10.70;;
26261;SDS011;13988;52.446;13.280;2024-03-08T03:20:11;18.90;;;9.30;;
26261;SDS011;13988;52.446;13.280;2024-03-08T03:22:40;29.48;;;9.80;;
26261;SDS011;13988;52.446;13.280;2024-03-08T03:25:06;27.65;;;11.55;;
26261;SDS011;13988;52.446;13.280;2024-03-08T03:27:35;35.80;;;10.38;;
26261;SDS011;13988;52.446;13.280;2024-03-08T03:30:02;23.88;;;11.20;;
26261;SDS011;13988;52.446;13.280;2024-03-08T03:32:46;20.17;;;10.32;;
26261;SDS011;13988;52.446;13.280;2024-03-08T03:35:12;18.80;;;10.25;;
26261;SDS011;13988;52.446;13.280;2024-03-08T03:37:39;22.70;;;9.75;;
26261;SDS011;13988;52.446;13.280;2024-03-08T03:40:07;26.50;;;11.32;;
26261;SDS011;13988;52.446;13.280;2024-03-08T03:42:34;24.00;;;10.20;;
26261;SDS011;13988;52.446;13.280;2024-03-08T03:44:59;26.63;;;11.27;;
26261;SDS011;13988;52.446;13.280;2024-03-08T03:47:25;25.70;;;11.52;;
26261;SDS011;13988;52.446;13.280;2024-03-08T03:49:52;26.08;;;10.82;;
26261;SDS011;13988;52.446;13.280;2024-03-08T03:52:19;24.00;;;10.02;;
26261;SDS011;13988;52.446;13.280;2024-03-08T03:54:44;23.17;;;11.10;;
26261;SDS011;13988;52.446;13.280;2024-03-08T03:57:10;29.85;;;10.52;;
26261;SDS011;13988;52.446;13.280;2024-03-08T03:59:37;26.50;;;10.90;;
26261;SDS011;13988;52.446;13.280;2024-03-08T04:02:03;21.65;;;11.23;;
26261;SDS011;13988;52.446;13.280;2024-03-08T04:04:29;30.98;;;10.77;;
26261;SDS011;13988;52.446;13.280;2024-03-08T04:06:54;26.80;;;10.27;;
26261;SDS011;13988;52.446;13.280;2024-03-08T04:09:20;26.00;;;11.85;;
26261;SDS011;13988;52.446;13.280;2024-03-08T04:11:47;28.77;;;10.68;;
26261;SDS011;13988;52.446;13.280;2024-03-08T04:14:13;22.58;;;9.70;;
26261;SDS011;13988;52.446;13.280;2024-03-08T04:16:39;31.13;;;11.48;;
26261;SDS011;13988;52.446;13.280;2024-03-08T04:19:04;27.85;;;10.98;;
26261;SDS011;13988;52.446;13.280;2024-03-08T04:21:30;25.65;;;11.65;;
26261;SDS011;13988;52.446;13.280;2024-03-08T04:23:56;29.33;;;10.80;;
26261;SDS011;13988;52.446;13.280;2024-03-08T04:26:21;25.08;;;10.65;;
26261;SDS011;13988;52.446;13.280;2024-03-08T04:28:47;20.92;;;11.10;;
26261;SDS011;13988;52.446;13.280;2024-03-08T04:31:13;25.30;;;10.48;;
26261;SDS011;13988;52.446;13.280;2024-03-08T04:33:39;24.30;;;11.00;;
26261;SDS011;13988;52.446;13.280;2024-03-08T04:36:04;21.10;;;10.00;;
26261;SDS011;13988;52.446;13.280;2024-03-08T04:38:30;27.67;;;10.00;;
26261;SDS011;13988;52.446;13.280;2024-03-08T04:40:56;27.02;;;11.77;;
26261;SDS011;13988;52.446;13.280;2024-03-08T04:43:23;26.17;;;12.27;;
26261;SDS011;13988;52.446;13.280;2024-03-08T04:45:51;22.33;;;11.88;;
26261;SDS011;13988;52.446;13.280;2024-03-08T04:48:18;28.20;;;11.23;;
26261;SDS011;13988;52.446;13.280;2024-03-08T04:50:44;27.80;;;12.05;;
26261;SDS011;13988;52.446;13.280;2024-03-08T04:53:10;20.27;;;11.30;;
26261;SDS011;13988;52.446;13.280;2024-03-08T04:55:37;25.10;;;12.02;;
26261;SDS011;13988;52.446;13.280;2024-03-08T04:58:03;27.67;;;11.82;;
26261;SDS011;13988;52.446;13.280;2024-03-08T05:00:31;25.58;;;12.05;;
26261;SDS011;13988;52.446;13.280;2024-03-08T05:02:57;26.60;;;11.80;;
26261;SDS011;13988;52.446;13.280;2024-03-08T05:05:23;29.23;;;12.52;;
26261;SDS011;13988;52.446;13.280;2024-03-08T05:07:49;23.27;;;11.43;;
26261;SDS011;13988;52.446;13.280;2024-03-08T05:10:15;34.70;;;12.40;;
26261;SDS011;13988;52.446;13.280;2024-03-08T05:12:42;28.73;;;11.55;;
26261;SDS011;13988;52.446;13.280;2024-03-08T05:15:08;25.20;;;11.50;;
26261;SDS011;13988;52.446;13.280;2024-03-08T05:17:34;32.50;;;12.57;;
26261;SDS011;13988;52.446;13.280;2024-03-08T05:20:00;34.83;;;12.70;;
26261;SDS011;13988;52.446;13.280;2024-03-08T05:22:26;19.15;;;10.07;;
26261;SDS011;13988;52.446;13.280;2024-03-08T05:24:51;28.90;;;12.38;;
26261;SDS011;13988;52.446;13.280;2024-03-08T05:27:17;26.80;;;10.75;;
26261;SDS011;13988;52.446;13.280;2024-03-08T05:29:42;25.65;;;11.40;;
26261;SDS011;13988;52.446;13.280;2024-03-08T05:32:08;33.13;;;12.43;;
26261;SDS011;13988;52.446;13.280;2024-03-08T05:34:35;28.30;;;14.23;;
26261;SDS011;13988;52.446;13.280;2024-03-08T05:37:00;38.45;;;12.77;;
26261;SDS011;13988;52.446;13.280;2024-03-08T05:39:26;46.88;;;13.20;;
26261;SDS011;13988;52.446;13.280;2024-03-08T05:41:52;34.97;;;12.73;;
26261;SDS011;13988;52.446;13.280;2024-03-08T05:44:20;26.30;;;12.23;;
26261;SDS011;13988;52.446;13.280;2024-03-08T05:46:45;25.25;;;12.63;;
26261;SDS011;13988;52.446;13.280;2024-03-08T05:49:11;29.65;;;12.38;;
26261;SDS011;13988;52.446;13.280;2024-03-08T05:51:38;27.25;;;12.30;;
26261;SDS011;13988;52.446;13.280;2024-03-08T05:54:05;25.98;;;13.65;;
26261;SDS011;13988;52.446;13.280;2024-03-08T05:56:34;34.15;;;13.88;;
26261;SDS011;13988;52.446;13.280;2024-03-08T05:59:01;32.80;;;14.13;;
26261;SDS011;13988;52.446;13.280;2024-03-08T06:01:27;32.28;;;14.65;;
26261;SDS011;13988;52.446;13.280;2024-03-08T06:03:53;27.58;;;12.80;;
26261;SDS011;13988;52.446;13.280;2024-03-08T06:06:21;24.27;;;12.40;;
26261;SDS011;13988;52.446;13.280;2024-03-08T06:08:47;28.45;;;13.60;;
26261;SDS011;13988;52.446;13.280;2024-03-08T06:11:17;31.38;;;14.57;;
26261;SDS011;13988;52.446;13.280;2024-03-08T06:13:43;34.85;;;13.98;;
26261;SDS011;13988;52.446;13.280;2024-03-08T06:16:10;31.45;;;16.20;;
26261;SDS011;13988;52.446;13.280;2024-03-08T06:18:36;30.50;;;13.90;;
26261;SDS011;13988;52.446;13.280;2024-03-08T06:21:03;30.73;;;13.82;;
26261;SDS011;13988;52.446;13.280;2024-03-08T06:23:30;27.25;;;12.80;;
26261;SDS011;13988;52.446;13.280;2024-03-08T06:26:00;34.63;;;15.10;;
26261;SDS011;13988;52.446;13.280;2024-03-08T06:28:26;37.55;;;14.18;;
26261;SDS011;13988;52.446;13.280;2024-03-08T06:30:52;31.77;;;14.05;;
26261;SDS011;13988;52.446;13.280;2024-03-08T06:33:17;34.65;;;14.30;;
26261;SDS011;13988;52.446;13.280;2024-03-08T06:35:43;26.25;;;13.60;;
26261;SDS011;13988;52.446;13.280;2024-03-08T06:38:09;32.28;;;11.27;;
26261;SDS011;13988;52.446;13.280;2024-03-08T06:40:36;34.47;;;14.80;;
26261;SDS011;13988;52.446;13.280;2024-03-08T06:43:02;30.95;;;12.38;;
26261;SDS011;13988;52.446;13.280;2024-03-08T06:45:30;30.15;;;12.85;;
26261;SDS011;13988;52.446;13.280;2024-03-08T06:47:57;29.63;;;14.68;;
26261;SDS011;13988;52.446;13.280;2024-03-08T06:50:22;31.95;;;13.88;;
26261;SDS011;13988;52.446;13.280;2024-03-08T06:52:48;30.98;;;13.05;;
26261;SDS011;13988;52.446;13.280;2024-03-08T06:55:18;29.73;;;12.23;;
26261;SDS011;13988;52.446;13.280;2024-03-08T06:57:47;28.75;;;12.68;;
26261;SDS011;13988;52.446;13.280;2024-03-08T07:00:13;27.40;;;12.88;;
26261;SDS011;13988;52.446;13.280;2024-03-08T07:02:43;36.90;;;13.77;;
26261;SDS011;13988;52.446;13.280;2024-03-08T07:05:13;30.55;;;12.27;;
26261;SDS011;13988;52.446;13.280;2024-03-08T07:07:41;28.85;;;12.27;;
26261;SDS011;13988;52.446;13.280;2024-03-08T07:10:07;34.08;;;14.57;;
26261;SDS011;13988;52.446;13.280;2024-03-08T07:12:36;36.53;;;13.57;;
26261;SDS011;13988;52.446;13.280;2024-03-08T07:15:02;29.70;;;14.05;;
26261;SDS011;13988;52.446;13.280;2024-03-08T07:17:30;23.25;;;10.43;;
26261;SDS011;13988;52.446;13.280;2024-03-08T07:19:55;24.88;;;12.43;;
26261;SDS011;13988;52.446;13.280;2024-03-08T07:22:24;23.48;;;9.90;;
26261;SDS011;13988;52.446;13.280;2024-03-08T07:24:50;25.67;;;12.43;;
26261;SDS011;13988;52.446;13.280;2024-03-08T07:27:40;29.20;;;13.18;;
26261;SDS011;13988;52.446;13.280;2024-03-08T07:30:06;21.83;;;10.75;;
26261;SDS011;13988;52.446;13.280;2024-03-08T07:32:35;38.88;;;14.10;;
26261;SDS011;13988;52.446;13.280;2024-03-08T07:35:00;25.35;;;12.75;;
26261;SDS011;13988;52.446;13.280;2024-03-08T07:37:27;26.65;;;11.15;;
26261;SDS011;13988;52.446;13.280;2024-03-08T07:39:52;28.50;;;13.27;;
26261;SDS011;13988;52.446;13.280;2024-03-08T07:42:18;33.90;;;13.30;;
26261;SDS011;13988;52.446;13.280;2024-03-08T07:44:44;27.10;;;12.88;;
26261;SDS011;13988;52.446;13.280;2024-03-08T07:47:11;29.80;;;12.68;;
26261;SDS011;13988;52.446;13.280;2024-03-08T07:49:37;29.42;;;12.50;;
26261;SDS011;13988;52.446;13.280;2024-03-08T07:52:03;28.15;;;13.50;;
26261;SDS011;13988;52.446;13.280;2024-03-08T07:54:32;32.03;;;12.38;;
26261;SDS011;13988;52.446;13.280;2024-03-08T07:56:59;31.17;;;12.82;;
26261;SDS011;13988;52.446;13.280;2024-03-08T07:59:26;26.80;;;11.88;;
26261;SDS011;13988;52.446;13.280;2024-03-08T08:01:52;32.35;;;11.93;;
26261;SDS011;13988;52.446;13.280;2024-03-08T08:04:18;31.25;;;13.25;;
26261;SDS011;13988;52.446;13.280;2024-03-08T08:06:49;30.98;;;12.30;;
26261;SDS011;13988;52.446;13.280;2024-03-08T08:09:16;35.33;;;12.77;;
26261;SDS011;13988;52.446;13.280;2024-03-08T08:11:53;25.67;;;13.35;;
26261;SDS011;13988;52.446;13.280;2024-03-08T08:14:19;33.10;;;12.68;;
26261;SDS011;13988;52.446;13.280;2024-03-08T08:16:46;32.13;;;12.07;;
26261;SDS011;13988;52.446;13.280;2024-03-08T08:19:13;29.40;;;13.75;;
26261;SDS011;13988;52.446;13.280;2024-03-08T08:21:39;30.98;;;14.27;;
26261;SDS011;13988;52.446;13.280;2024-03-08T08:24:05;25.38;;;12.43;;
26261;SDS011;13988;52.446;13.280;2024-03-08T08:26:31;25.50;;;12.00;;
26261;SDS011;13988;52.446;13.280;2024-03-08T08:28:59;31.38;;;12.52;;
26261;SDS011;13988;52.446;13.280;2024-03-08T08:31:25;24.10;;;10.50;;
26261;SDS011;13988;52.446;13.280;2024-03-08T08:33:51;23.85;;;10.57;;
26261;SDS011;13988;52.446;13.280;2024-03-08T08:36:23;26.55;;;11.25;;
26261;SDS011;13988;52.446;13.280;2024-03-08T08:38:51;27.58;;;12.45;;
26261;SDS011;13988;52.446;13.280;2024-03-08T08:41:20;14.68;;;9.07;;
26261;SDS011;13988;52.446;13.280;2024-03-08T08:43:46;28.45;;;12.65;;
26261;SDS011;13988;52.446;13.280;2024-03-08T08:46:16;25.75;;;12.52;;
26261;SDS011;13988;52.446;13.280;2024-03-08T08:48:42;27.38;;;10.93;;
26261;SDS011;13988;52.446;13.280;2024-03-08T08:51:10;26.58;;;11.85;;
26261;SDS011;13988;52.446;13.280;2024-03-08T08:53:42;28.63;;;11.40;;
26261;SDS011;13988;52.446;13.280;2024-03-08T08:56:11;28.25;;;11.93;;
26261;SDS011;13988;52.446;13.280;2024-03-08T08:58:41;26.58;;;12.38;;
26261;SDS011;13988;52.446;13.280;2024-03-08T09:01:10;28.25;;;13.00;;
26261;SDS011;13988;52.446;13.280;2024-03-08T09:03:36;25.05;;;10.77;;
26261;SDS011;13988;52.446;13.280;2024-03-08T09:06:06;21.42;;;10.85;;
26261;SDS011;13988;52.446;13.280;2024-03-08T09:08:37;27.67;;;12.02;;
26261;SDS011;13988;52.446;13.280;2024-03-08T09:11:03;26.80;;;12.35;;
26261;SDS011;13988;52.446;13.280;2024-03-08T09:13:30;24.45;;;10.93;;
26261;SDS011;13988;52.446;13.280;2024-03-08T09:15:56;26.58;;;10.68;;
26261;SDS011;13988;52.446;13.280;2024-03-08T09:18:21;25.25;;;11.55;;
26261;SDS011;13988;52.446;13.280;2024-03-08T09:20:49;24.88;;;9.02;;
26261;SDS011;13988;52.446;13.280;2024-03-08T09:23:14;24.92;;;12.02;;
26261;SDS011;13988;52.446;13.280;2024-03-08T09:25:41;29.00;;;13.13;;
26261;SDS011;13988;52.446;13.280;2024-03-08T09:28:08;24.63;;;12.13;;
26261;SDS011;13988;52.446;13.280;2024-03-08T09:30:34;26.77;;;12.98;;
26261;SDS011;13988;52.446;13.280;2024-03-08T09:33:00;25.35;;;12.30;;
26261;SDS011;13988;52.446;13.280;2024-03-08T09:35:27;23.25;;;10.77;;
26261;SDS011;13988;52.446;13.280;2024-03-08T09:37:52;22.55;;;10.73;;
26261;SDS011;13988;52.446;13.280;2024-03-08T09:40:18;20.55;;;11.63;;
26261;SDS011;13988;52.446;13.280;2024-03-08T09:42:45;21.67;;;10.50;;
26261;SDS011;13988;52.446;13.280;2024-03-08T09:45:12;25.92;;;10.18;;
26261;SDS011;13988;52.446;13.280;2024-03-08T09:47:42;21.67;;;11.30;;
26261;SDS011;13988;52.446;13.280;2024-03-08T09:50:08;22.58;;;10.18;;
26261;SDS011;13988;52.446;13.280;2024-03-08T09:52:38;23.88;;;10.75;;
26261;SDS011;13988;52.446;13.280;2024-03-08T09:55:08;20.25;;;9.27;;
26261;SDS011;13988;52.446;13.280;2024-03-08T09:57:39;39.10;;;10.57;;
26261;SDS011;13988;52.446;13.280;2024-03-08T10:00:05;24.63;;;10.57;;
26261;SDS011;13988;52.446;13.280;2024-03-08T10:02:48;25.50;;;10.63;;
26261;SDS011;13988;52.446;13.280;2024-03-08T10:05:17;23.17;;;10.43;;
26261;SDS011;13988;52.446;13.280;2024-03-08T10:07:43;22.83;;;9.65;;
26261;SDS011;13988;52.446;13.280;2024-03-08T10:10:09;20.88;;;9.77;;
26261;SDS011;13988;52.446;13.280;2024-03-08T10:12:37;26.33;;;11.02;;
26261;SDS011;13988;52.446;13.280;2024-03-08T10:15:05;16.13;;;7.85;;
26261;SDS011;13988;52.446;13.280;2024-03-08T10:17:33;24.88;;;10.52;;
26261;SDS011;13988;52.446;13.280;2024-03-08T10:20:00;16.02;;;7.85;;
26261;SDS011;13988;52.446;13.280;2024-03-08T10:22:25;14.70;;;6.25;;
26261;SDS011;13988;52.446;13.280;2024-03-08T10:24:51;21.58;;;9.00;;
26261;SDS011;13988;52.446;13.280;2024-03-08T10:27:17;18.52;;;9.60;;
26261;SDS011;13988;52.446;13.280;2024-03-08T10:29:46;26.50;;;10.55;;
26261;SDS011;13988;52.446;13.280;2024-03-08T10:32:16;12.88;;;5.97;;
26261;SDS011;13988;52.446;13.280;2024-03-08T10:34:42;18.67;;;8.82;;
26261;SDS011;13988;52.446;13.280;2024-03-08T10:37:11;15.75;;;8.82;;
26261;SDS011;13988;52.446;13.280;2024-03-08T10:39:43;17.52;;;8.07;;
26261;SDS011;13988;52.446;13.280;2024-03-08T10:42:16;18.15;;;7.85;;
26261;SDS011;13988;52.446;13.280;2024-03-08T10:44:49;19.63;;;8.75;;
26261;SDS011;13988;52.446;13.280;2024-03-08T10:47:31;17.10;;;8.63;;
26261;SDS011;13988;52.446;13.280;2024-03-08T10:52:51;23.20;;;9.65;;
26261;SDS011;13988;52.446;13.280;2024-03-08T10:55:18;18.98;;;8.35;;
26261;SDS011;13988;52.446;13.280;2024-03-08T10:57:45;14.75;;;7.30;;
26261;SDS011;13988;52.446;13.280;2024-03-08T11:00:14;18.08;;;7.75;;
26261;SDS011;13988;52.446;13.280;2024-03-08T11:02:51;17.63;;;7.90;;
26261;SDS011;13988;52.446;13.280;2024-03-08T11:05:31;13.82;;;8.48;;
26261;SDS011;13988;52.446;13.280;2024-03-08T11:08:00;18.58;;;8.52;;
26261;SDS011;13988;52.446;13.280;2024-03-08T11:10:27;15.45;;;7.82;;
26261;SDS011;13988;52.446;13.280;2024-03-08T11:12:53;16.73;;;8.05;;
26261;SDS011;13988;52.446;13.280;2024-03-08T11:15:19;16.35;;;7.35;;
26261;SDS011;13988;52.446;13.280;2024-03-08T11:17:45;13.20;;;7.10;;
26261;SDS011;13988;52.446;13.280;2024-03-08T11:20:13;16.05;;;7.57;;
26261;SDS011;13988;52.446;13.280;2024-03-08T11:25:34;13.93;;;6.63;;
26261;SDS011;13988;52.446;13.280;2024-03-08T11:28:10;16.60;;;8.02;;
26261;SDS011;13988;52.446;13.280;2024-03-08T11:30:41;18.00;;;7.65;;
26261;SDS011;13988;52.446;13.280;2024-03-08T11:33:11;16.63;;;7.10;;
26261;SDS011;13988;52.446;13.280;2024-03-08T11:35:37;17.08;;;7.35;;
26261;SDS011;13988;52.446;13.280;2024-03-08T11:38:04;18.10;;;7.45;;
26261;SDS011;13988;52.446;13.280;2024-03-08T11:40:30;13.88;;;6.97;;
26261;SDS011;13988;52.446;13.280;2024-03-08T11:42:58;16.95;;;7.85;;
26261;SDS011;13988;52.446;13.280;2024-03-08T11:45:24;12.63;;;7.10;;
26261;SDS011;13988;52.446;13.280;2024-03-08T11:47:50;14.20;;;7.60;;
26261;SDS011;13988;52.446;13.280;2024-03-08T11:50:15;18.67;;;8.43;;
26261;SDS011;13988;52.446;13.280;2024-03-08T11:52:43;17.25;;;8.52;;
26261;SDS011;13988;52.446;13.280;2024-03-08T11:55:09;15.30;;;7.53;;
26261;SDS011;13988;52.446;13.280;2024-03-08T11:57:38;19.75;;;9.35;;
26261;SDS011;13988;52.446;13.280;2024-03-08T12:00:04;15.95;;;8.68;;
26261;SDS011;13988;52.446;13.280;2024-03-08T12:02:33;16.73;;;7.60;;
26261;SDS011;13988;52.446;13.280;2024-03-08T12:05:03;19.02;;;9.15;;
26261;SDS011;13988;52.446;13.280;2024-03-08T12:07:31;20.77;;;8.00;;
26261;SDS011;13988;52.446;13.280;2024-03-08T12:12:47;14.27;;;6.93;;
26261;SDS011;13988;52.446;13.280;2024-03-08T12:15:17;15.90;;;8.18;;
26261;SDS011;13988;52.446;13.280;2024-03-08T12:17:44;18.67;;;8.02;;
26261;SDS011;13988;52.446;13.280;2024-03-08T12:22:46;13.27;;;6.90;;
26261;SDS011;13988;52.446;13.280;2024-03-08T12:25:13;15.73;;;8.48;;
26261;SDS011;13988;52.446;13.280;2024-03-08T12:27:40;17.35;;;8.20;;
26261;SDS011;13988;52.446;13.280;2024-03-08T12:30:20;15.05;;;7.57;;
26261;SDS011;13988;52.446;13.280;2024-03-08T12:32:53;13.95;;;7.25;;
26261;SDS011;13988;52.446;13.280;2024-03-08T12:35:22;17.20;;;8.32;;
26261;SDS011;13988;52.446;13.280;2024-03-08T12:37:50;13.77;;;7.45;;
26261;SDS011;13988;52.446;13.280;2024-03-08T12:40:26;11.43;;;5.85;;
26261;SDS011;13988;52.446;13.280;2024-03-08T12:42:59;17.92;;;7.88;;
26261;SDS011;13988;52.446;13.280;2024-03-08T12:45:27;16.35;;;8.50;;
26261;SDS011;13988;52.446;13.280;2024-03-08T12:47:53;12.82;;;6.65;;
26261;SDS011;13988;52.446;13.280;2024-03-08T12:50:19;14.52;;;6.65;;
26261;SDS011;13988;52.446;13.280;2024-03-08T12:52:46;15.02;;;6.40;;
26261;SDS011;13988;52.446;13.280;2024-03-08T12:55:11;15.75;;;7.30;;
26261;SDS011;13988;52.446;13.280;2024-03-08T12:57:37;17.25;;;7.25;;
26261;SDS011;13988;52.446;13.280;2024-03-08T13:00:03;11.52;;;5.50;;
26261;SDS011;13988;52.446;13.280;2024-03-08T13:02:30;15.23;;;7.35;;
26261;SDS011;13988;52.446;13.280;2024-03-08T13:04:57;14.98;;;7.53;;
26261;SDS011;13988;52.446;13.280;2024-03-08T13:07:23;12.23;;;7.10;;
26261;SDS011;13988;52.446;13.280;2024-03-08T13:09:53;17.17;;;8.00;;
26261;SDS011;13988;52.446;13.280;2024-03-08T13:12:22;16.98;;;7.07;;
26261;SDS011;13988;52.446;13.280;2024-03-08T13:14:48;12.40;;;7.85;;
26261;SDS011;13988;52.446;13.280;2024-03-08T13:17:15;10.70;;;6.72;;
26261;SDS011;13988;52.446;13.280;2024-03-08T13:19:41;18.90;;;9.10;;
26261;SDS011;13988;52.446;13.280;2024-03-08T13:22:10;17.30;;;8.07;;
26261;SDS011;13988;52.446;13.280;2024-03-08T13:24:38;12.65;;;7.10;;
26261;SDS011;13988;52.446;13.280;2024-03-08T13:27:06;17.65;;;9.35;;
26261;SDS011;13988;52.446;13.280;2024-03-08T13:29:50;16.17;;;8.10;;
26261;SDS011;13988;52.446;13.280;2024-03-08T13:32:16;17.40;;;9.07;;
26261;SDS011;13988;52.446;13.280;2024-03-08T13:34:45;16.35;;;9.00;;
26261;SDS011;13988;52.446;13.280;2024-03-08T13:37:12;18.17;;;9.48;;
26261;SDS011;13988;52.446;13.280;2024-03-08T13:39:41;16.45;;;7.57;;
26261;SDS011;13988;52.446;13.280;2024-03-08T13:42:12;16.60;;;8.85;;
26261;SDS011;13988;52.446;13.280;2024-03-08T13:44:47;19.75;;;9.88;;
26261;SDS011;13988;52.446;13.280;2024-03-08T13:47:14;14.52;;;8.70;;
26261;SDS011;13988;52.446;13.280;2024-03-08T13:49:41;19.45;;;9.20;;
26261;SDS011;13988;52.446;13.280;2024-03-08T13:52:08;17.63;;;9.80;;
26261;SDS011;13988;52.446;13.280;2024-03-08T13:54:34;22.33;;;9.13;;
26261;SDS011;13988;52.446;13.280;2024-03-08T13:57:00;17.40;;;8.85;;
26261;SDS011;13988;52.446;13.280;2024-03-08T13:59:28;16.17;;;8.65;;
26261;SDS011;13988;52.446;13.280;2024-03-08T14:01:58;15.68;;;8.63;;
26261;SDS011;13988;52.446;13.280;2024-03-08T14:04:26;18.50;;;8.40;;
26261;SDS011;13988;52.446;13.280;2024-03-08T14:06:52;18.27;;;9.20;;
26261;SDS011;13988;52.446;13.280;2024-03-08T14:09:22;20.40;;;9.82;;
26261;SDS011;13988;52.446;13.280;2024-03-08T14:11:49;18.08;;;8.95;;
26261;SDS011;13988;52.446;13.280;2024-03-08T14:14:18;17.40;;;8.15;;
26261;SDS011;13988;52.446;13.280;2024-03-08T14:16:46;14.48;;;8.43;;
26261;SDS011;13988;52.446;13.280;2024-03-08T14:19:13;18.77;;;8.23;;
26261;SDS011;13988;52.446;13.280;2024-03-08T14:21:40;19.75;;;8.75;;
26261;SDS011;13988;52.446;13.280;2024-03-08T14:24:07;16.63;;;8.20;;
26261;SDS011;13988;52.446;13.280;2024-03-08T14:26:33;14.85;;;8.30;;